Time;durP1;ratioP1;P1;durP2;ratioP2;P2;SDS_P1;SDS_P2;PMS_P1;PMS_P2;Temp;Humidity;BMP_temperature;BMP_pressure;BME280_temperature;BME280_humidity;BME280_pressure;Samples;Min_cycle;Max_cycle;Signal;HPM_P1;HPM_P2
2023/11/30 00:00:19;;;;;;;11.00;4.88;;;;;;;;;;4943793;29;20468;-81
2023/11/30 00:02:45;;;;;;;11.82;4.72;;;;;;;;;;4943197;28;20566;-81
2023/11/30 00:05:11;;;;;;;10.20;6.28;;;;;;;;;;4944351;28;20027;-81
2023/11/30 00:07:37;;;;;;;16.65;6.43;;;;;;;;;;4943918;29;20034;-81
2023/11/30 00:10:03;;;;;;;11.98;5.95;;;4.40;94.50;;;;;;4944240;29;20500;-81
2023/11/30 00:12:29;;;;;;;11.73;5.65;;;;;;;;;;4943717;28;20039;-81
2023/11/30 00:14:55;;;;;;;12.88;6.13;;;4.20;95.70;;;;;;4928332;29;20118;-81
2023/11/30 00:17:21;;;;;;;12.45;5.28;;;;;;;;;;4943971;28;20662;-81
2023/11/30 00:19:47;;;;;;;11.25;5.03;;;;;;;;;;4943145;29;20365;-81
2023/11/30 00:22:13;;;;;;;8.80;5.32;;;;;;;;;;4941953;29;20058;-81
2023/11/30 00:24:39;;;;;;;12.75;6.38;;;;;;;;;;4937984;28;20048;-81
2023/11/30 00:27:05;;;;;;;19.65;7.20;;;;;;;;;;4936695;29;20024;-81
2023/11/30 00:29:31;;;;;;;9.65;5.72;;;;;;;;;;4938189;29;20487;-81
2023/11/30 00:31:57;;;;;;;11.32;6.72;;;;;;;;;;4937848;29;20038;-81
2023/11/30 00:34:23;;;;;;;15.68;6.45;;;;;;;;;;4937471;29;20028;-81
2023/11/30 00:36:49;;;;;;;13.27;6.10;;;;;;;;;;4938031;29;20019;-81
2023/11/30 00:39:15;;;;;;;9.48;5.43;;;4.30;97.70;;;;;;4937391;29;20485;-81
2023/11/30 00:41:41;;;;;;;10.05;4.95;;;;;;;;;;4942986;29;20023;-81
2023/11/30 00:44:07;;;;;;;12.82;6.28;;;;;;;;;;4944439;29;20111;-81
2023/11/30 00:46:33;;;;;;;9.45;4.90;;;;;;;;;;4943821;29;20023;-80
2023/11/30 00:48:59;;;;;;;12.82;5.35;;;;;;;;;;4943227;28;20035;-81
2023/11/30 00:51:28;;;;;;;13.70;6.38;;;;;;;;;;4943706;29;20031;-81
2023/11/30 00:53:54;;;;;;;13.32;5.55;;;;;;;;;;4947106;29;20038;-80
2023/11/30 00:56:20;;;;;;;10.43;5.45;;;;;;;;;;4945266;29;20106;-81
2023/11/30 00:58:46;;;;;;;12.57;5.80;;;;;;;;;;4947063;29;20046;-81
2023/11/30 01:01:12;;;;;;;10.30;4.40;;;;;;;;;;4946305;29;20073;-81
2023/11/30 01:03:38;;;;;;;11.50;5.72;;;;;;;;;;4931635;29;20584;-80
2023/11/30 01:06:04;;;;;;;14.65;5.50;;;;;;;;;;4947306;28;20019;-81
2023/11/30 01:08:30;;;;;;;15.13;6.57;;;;;;;;;;4946228;29;20459;-81
2023/11/30 01:10:56;;;;;;;9.68;5.90;;;;;;;;;;4946492;29;20043;-81
2023/11/30 01:13:22;;;;;;;9.55;5.20;;;;;;;;;;4946715;29;20027;-81
2023/11/30 01:15:48;;;;;;;11.15;5.90;;;4.20;99.90;;;;;;4947306;29;20338;-80
2023/11/30 01:18:14;;;;;;;16.25;5.95;;;;;;;;;;4945000;28;20695;-81
2023/11/30 01:20:40;;;;;;;13.52;4.93;;;3.90;99.20;;;;;;4938960;28;20015;-81
2023/11/30 01:23:06;;;;;;;11.60;4.95;;;;;;;;;;4942921;28;20082;-80
2023/11/30 01:25:32;;;;;;;8.02;5.05;;;3.90;99.90;;;;;;4946542;28;20386;-81
2023/11/30 01:27:58;;;;;;;9.38;4.97;;;;;;;;;;4945228;28;20039;-81
2023/11/30 01:30:24;;;;;;;18.40;6.90;;;;;;;;;;4945475;28;20054;-81
2023/11/30 01:32:50;;;;;;;13.55;5.63;;;;;;;;;;4946256;28;20235;-81
2023/11/30 01:35:17;;;;;;;11.10;5.68;;;;;;;;;;4945992;29;20027;-80
2023/11/30 01:37:43;;;;;;;19.42;5.70;;;;;;;;;;4946987;28;20026;-80
2023/11/30 01:40:09;;;;;;;19.40;6.28;;;4.10;99.90;;;;;;4946174;29;20054;-81
2023/11/30 01:42:35;;;;;;;12.93;5.78;;;4.50;99.50;;;;;;4947174;29;20050;-81
2023/11/30 01:45:02;;;;;;;11.70;6.38;;;;;;;;;;4945837;29;20038;-81
2023/11/30 01:47:29;;;;;;;10.30;5.03;;;9.10;99.70;;;;;;4945747;29;20421;-81
2023/11/30 01:49:55;;;;;;;16.73;6.93;;;4.30;99.70;;;;;;4945498;29;20063;-81
2023/11/30 01:52:21;;;;;;;15.07;6.05;;;;;;;;;;4946315;29;20139;-81
2023/11/30 01:54:47;;;;;;;11.27;6.65;;;;;;;;;;4945355;28;20046;-81
2023/11/30 01:57:14;;;;;;;15.13;6.20;;;2.20;96.70;;;;;;4944964;28;20067;-81
2023/11/30 01:59:40;;;;;;;13.45;5.28;;;4.80;99.90;;;;;;4946892;29;20107;-81
2023/11/30 02:02:06;;;;;;;16.10;6.93;;;;;;;;;;4941168;29;20038;-81
2023/11/30 02:04:34;;;;;;;19.85;6.90;;;4.40;99.10;;;;;;4941746;28;20019;-81
2023/11/30 02:07:00;;;;;;;15.88;6.97;;;;;;;;;;4940195;29;20157;-81
2023/11/30 02:09:25;;;;;;;8.77;6.03;;;4.40;99.90;;;;;;4940257;29;20027;-81
2023/11/30 02:11:51;;;;;;;13.57;6.25;;;3.90;99.90;;;;;;4939984;29;20519;-81
2023/11/30 02:14:18;;;;;;;9.40;5.20;;;6.10;99.90;;;;;;4940103;29;20069;-81
2023/11/30 02:16:43;;;;;;;10.40;6.50;;;4.20;99.90;;;;;;4939964;29;20011;-80
2023/11/30 02:19:09;;;;;;;16.65;7.05;;;;;;;;;;4942078;29;20045;-81
2023/11/30 02:21:35;;;;;;;10.63;5.05;;;;;;;;;;4940990;29;20031;-81
2023/11/30 02:24:02;;;;;;;14.13;5.53;;;;;;;;;;4940676;29;20077;-81
2023/11/30 02:26:28;;;;;;;18.27;6.65;;;;;;;;;;4941050;29;20027;-81
2023/11/30 02:28:54;;;;;;;10.30;6.57;;;;;;;;;;4939309;28;20100;-81
2023/11/30 02:31:19;;;;;;;17.02;6.25;;;4.30;99.90;;;;;;4940344;29;20466;-81
2023/11/30 02:33:45;;;;;;;15.65;6.20;;;4.20;99.90;;;;;;4939490;29;20327;-81
2023/11/30 02:36:12;;;;;;;9.43;6.30;;;;;;;;;;4939053;29;20492;-81
2023/11/30 02:38:38;;;;;;;14.85;7.60;;;;;;;;;;4939768;29;20035;-82
2023/11/30 02:41:04;;;;;;;17.25;6.32;;;4.10;99.90;;;;;;4942412;29;20045;-81
2023/11/30 02:43:30;;;;;;;13.50;5.75;;;;;;;;;;4945085;28;20035;-80
2023/11/30 02:45:56;;;;;;;15.23;7.30;;;;;;;;;;4945337;29;20035;-81
2023/11/30 02:48:22;;;;;;;14.82;6.03;;;;;;;;;;4946263;28;20045;-81
2023/11/30 02:50:48;;;;;;;12.20;6.55;;;4.10;99.90;;;;;;4943820;29;20031;-81
2023/11/30 02:53:13;;;;;;;11.27;5.07;;;4.20;99.90;;;;;;4944954;29;20575;-81
2023/11/30 02:55:40;;;;;;;12.65;6.88;;;;;;;;;;4943398;29;20026;-81
2023/11/30 02:58:05;;;;;;;10.98;5.40;;;4.30;99.90;;;;;;4945547;29;20491;-81
2023/11/30 03:00:31;;;;;;;10.77;5.78;;;4.60;99.90;;;;;;4945664;29;20170;-81
2023/11/30 03:02:57;;;;;;;14.30;6.93;;;;;;;;;;4943930;29;20031;-81
2023/11/30 03:05:23;;;;;;;11.80;6.07;;;;;;;;;;4945018;28;20035;-81
2023/11/30 03:07:49;;;;;;;12.27;6.75;;;;;;;;;;4944440;29;20116;-82
2023/11/30 03:10:15;;;;;;;10.77;6.35;;;;;;;;;;4944151;29;20090;-81
2023/11/30 03:12:41;;;;;;;10.05;5.28;;;;;;;;;;4944530;29;20043;-81
2023/11/30 03:15:07;;;;;;;11.95;5.15;;;4.50;99.90;;;;;;4944533;28;20382;-81
2023/11/30 03:17:33;;;;;;;18.77;7.45;;;;;;;;;;4944243;29;20073;-80
2023/11/30 03:19:59;;;;;;;18.50;6.15;;;;;;;;;;4940319;29;20110;-81
2023/11/30 03:22:25;;;;;;;18.48;6.75;;;4.60;99.90;;;;;;4938885;29;20613;-81
2023/11/30 03:24:51;;;;;;;26.80;8.07;;;;;;;;;;4941289;29;20086;-81
2023/11/30 03:27:17;;;;;;;18.00;7.65;;;;;;;;;;4938550;29;20036;-81
2023/11/30 03:29:43;;;;;;;13.70;7.00;;;;;;;;;;4937534;28;20051;-80
2023/11/30 03:32:09;;;;;;;13.43;6.63;;;;;;;;;;4939152;29;20039;-81
2023/11/30 03:34:35;;;;;;;8.25;6.28;;;;;;;;;;4941722;29;20457;-81
2023/11/30 03:37:01;;;;;;;10.98;6.40;;;;;;;;;;4944819;29;20082;-81
2023/11/30 03:39:27;;;;;;;12.20;5.90;;;;;;;;;;4943604;29;20031;-81
2023/11/30 03:41:53;;;;;;;10.77;5.47;;;;;;;;;;4944397;29;20027;-81
2023/11/30 03:44:19;;;;;;;13.70;6.13;;;;;;;;;;4944711;29;20035;-81
2023/11/30 03:46:45;;;;;;;15.13;7.03;;;;;;;;;;4945078;29;20036;-81
2023/11/30 03:49:11;;;;;;;11.82;5.75;;;;;;;;;;4943825;28;20106;-81
2023/11/30 03:51:37;;;;;;;14.88;6.97;;;;;;;;;;4944097;29;20031;-81
2023/11/30 03:54:03;;;;;;;10.73;7.03;;;;;;;;;;4944511;29;20027;-80
2023/11/30 03:56:32;;;;;;;11.20;5.85;;;4.30;99.90;;;;;;4944290;29;20392;-81
2023/11/30 03:58:58;;;;;;;13.13;6.22;;;;;;;;;;4943472;28;20042;-81
2023/11/30 04:01:24;;;;;;;9.60;6.00;;;;;;;;;;4927321;29;20395;-80
2023/11/30 04:03:51;;;;;;;14.05;7.03;;;;;;;;;;4944609;29;20034;-81
2023/11/30 04:06:21;;;;;;;9.45;4.90;;;4.60;99.90;;;;;;4944690;28;20034;-80
2023/11/30 04:08:47;;;;;;;12.98;6.28;;;;;;;;;;4945633;29;20372;-81
2023/11/30 04:11:17;;;;;;;10.85;5.45;;;4.50;99.90;;;;;;4942959;29;20138;-81
2023/11/30 04:13:46;;;;;;;17.27;6.65;;;4.50;99.90;;;;;;4939413;29;20029;-81
2023/11/30 04:16:16;;;;;;;12.50;5.63;;;4.50;99.90;;;;;;4938221;29;20055;-81
2023/11/30 04:18:42;;;;;;;9.90;4.80;;;4.50;99.90;;;;;;4937464;29;20032;-81
2023/11/30 04:21:09;;;;;;;13.10;6.38;;;;;;;;;;4939020;29;20028;-80
2023/11/30 04:23:35;;;;;;;14.32;5.53;;;;;;;;;;4937719;29;20035;-81
2023/11/30 04:26:01;;;;;;;26.70;7.28;;;4.70;99.90;;;;;;4940672;29;20035;-81
2023/11/30 04:28:27;;;;;;;15.55;7.03;;;;;;;;;;4941462;28;20050;-81
2023/11/30 04:30:53;;;;;;;10.13;6.00;;;;;;;;;;4941699;29;20590;-81
2023/11/30 04:33:19;;;;;;;16.05;5.93;;;;;;;;;;4942113;29;20039;-81
2023/11/30 04:35:45;;;;;;;12.73;6.65;;;;;;;;;;4942866;29;20504;-81
2023/11/30 04:38:11;;;;;;;14.07;6.70;;;;;;;;;;4946745;29;20028;-81
2023/11/30 04:40:37;;;;;;;13.45;5.63;;;;;;;;;;4947014;28;20393;-81
2023/11/30 04:43:03;;;;;;;21.45;7.70;;;;;;;;;;4948160;29;20042;-81
2023/11/30 04:45:29;;;;;;;15.43;7.35;;;;;;;;;;4947051;29;20054;-81
2023/11/30 04:47:56;;;;;;;16.63;7.57;;;;;;;;;;4947898;29;20027;-81
2023/11/30 04:50:22;;;;;;;13.13;6.63;;;;;;;;;;4948030;29;20114;-81
2023/11/30 04:52:48;;;;;;;13.40;7.00;;;;;;;;;;4947340;29;20086;-81
2023/11/30 04:55:14;;;;;;;11.80;5.50;;;4.50;99.90;;;;;;4946111;29;20459;-81
2023/11/30 04:57:40;;;;;;;8.85;5.65;;;;;;;;;;4946904;29;20038;-81
2023/11/30 05:00:06;;;;;;;13.05;6.90;;;4.70;99.90;;;;;;4946660;29;20401;-81
2023/11/30 05:02:32;;;;;;;10.90;6.28;;;4.80;99.90;;;;;;4946811;29;20035;-81
2023/11/30 05:04:58;;;;;;;14.73;6.65;;;;;;;;;;4947886;28;20035;-81
2023/11/30 05:07:25;;;;;;;12.48;5.47;;;;;;;;;;4946447;29;20386;-81
2023/11/30 05:09:50;;;;;;;12.32;5.82;;;;;;;;;;4947488;29;20150;-81
2023/11/30 05:12:17;;;;;;;9.77;4.90;;;;;;;;;;4946826;29;20126;-81
2023/11/30 05:14:43;;;;;;;20.98;6.18;;;;;;;;;;4944118;28;20023;-81
2023/11/30 05:17:09;;;;;;;12.48;6.38;;;;;;;;;;4941075;29;20320;-81
2023/11/30 05:19:35;;;;;;;10.68;5.47;;;;;;;;;;4941129;29;20098;-81
2023/11/30 05:22:01;;;;;;;16.13;6.43;;;;;;;;;;4941510;29;20024;-81
2023/11/30 05:24:27;;;;;;;15.30;8.10;;;;;;;;;;4940501;28;20023;-80
2023/11/30 05:26:53;;;;;;;12.40;6.78;;;;;;;;;;4940405;28;20387;-81
2023/11/30 05:29:19;;;;;;;14.98;7.35;;;5.20;99.90;;;;;;4941413;28;20607;-81
2023/11/30 05:31:45;;;;;;;12.20;6.07;;;;;;;;;;4938827;29;20049;-81
2023/11/30 05:34:11;;;;;;;11.88;6.30;;;;;;;;;;4917723;29;20479;-81
2023/11/30 05:36:37;;;;;;;20.70;6.97;;;;;;;;;;4940102;29;20063;-81
2023/11/30 05:39:03;;;;;;;10.73;5.00;;;;;;;;;;4940108;29;20139;-81
2023/11/30 05:41:29;;;;;;;14.53;7.43;;;;;;;;;;4943516;28;20416;-81
2023/11/30 05:43:55;;;;;;;12.80;5.45;;;;;;;;;;4946073;29;20023;-81
2023/11/30 05:46:22;;;;;;;12.65;6.22;;;;;;;;;;4946059;29;20043;-81
2023/11/30 05:48:47;;;;;;;10.57;5.10;;;;;;;;;;4946657;29;20102;-81
2023/11/30 05:51:13;;;;;;;14.00;6.32;;;;;;;;;;4946742;28;20110;-81
2023/11/30 05:53:40;;;;;;;24.60;6.47;;;;;;;;;;4946186;28;20035;-81
2023/11/30 05:56:06;;;;;;;13.25;6.63;;;;;;;;;;4946494;28;20118;-81
2023/11/30 05:58:32;;;;;;;12.70;6.40;;;4.80;99.90;;;;;;4945729;29;20034;-81
2023/11/30 06:00:58;;;;;;;17.88;6.35;;;;;;;;;;4945820;29;20500;-81
2023/11/30 06:03:24;;;;;;;17.33;7.13;;;4.70;99.90;;;;;;4947007;29;20538;-81
2023/11/30 06:05:50;;;;;;;15.27;7.50;;;;;;;;;;4946993;28;20039;-81
2023/11/30 06:08:16;;;;;;;13.68;7.32;;;;;;;;;;4947007;29;20030;-81
2023/11/30 06:10:42;;;;;;;12.32;6.63;;;4.90;99.90;;;;;;4945556;29;20473;-81
2023/11/30 06:13:08;;;;;;;12.25;6.63;;;4.90;99.90;;;;;;4946238;29;20144;-81
2023/11/30 06:15:33;;;;;;;15.80;7.90;;;4.90;99.90;;;;;;4946351;29;20019;-81
2023/11/30 06:17:59;;;;;;;14.73;6.82;;;;;;;;;;4945233;29;20130;-81
2023/11/30 06:20:25;;;;;;;12.13;5.93;;;;;;;;;;4939826;29;20150;-83
2023/11/30 06:22:51;;;;;;;13.57;6.55;;;;;;;;;;4927819;29;20118;-80
2023/11/30 06:25:17;;;;;;;20.35;8.40;;;;;;;;;;4941472;28;20138;-80
2023/11/30 06:27:43;;;;;;;18.95;8.18;;;;;;;;;;4925811;29;20472;-81
2023/11/30 06:30:09;;;;;;;15.20;7.32;;;;;;;;;;4942424;28;20114;-81
2023/11/30 06:32:35;;;;;;;21.60;7.65;;;;;;;;;;4926336;29;20353;-81
2023/11/30 06:35:02;;;;;;;19.95;7.75;;;;;;;;;;4944899;29;20384;-80
2023/11/30 06:37:28;;;;;;;17.00;5.68;;;;;;;;;;4941394;29;20038;-81
2023/11/30 06:39:54;;;;;;;16.08;7.72;;;5.20;99.90;;;;;;4943382;29;20074;-81
2023/11/30 06:42:19;;;;;;;14.25;6.70;;;;;;;;;;4944812;29;20027;-81
2023/11/30 06:44:47;;;;;;;10.27;5.38;;;;;;;;;;4944959;29;20023;-80
2023/11/30 06:47:13;;;;;;;;;;;;;;;;;;4944908;29;20059;-86
2023/11/30 06:49:39;;;;;;;15.48;7.30;;;;;;;;;;4945798;28;19960;-79
2023/11/30 06:52:05;;;;;;;14.88;7.05;;;;;;;;;;4944757;29;20031;-78
2023/11/30 06:54:35;;;;;;;15.05;7.57;;;;;;;;;;4925764;29;20066;-79
2023/11/30 06:57:01;;;;;;;13.20;8.02;;;;;;;;;;4941100;28;20457;-78
2023/11/30 06:59:27;;;;;;;23.02;8.75;;;;;;;;;;4941591;29;20027;-80
2023/11/30 07:01:53;;;;;;;25.20;10.48;;;;;;;;;;4939228;29;20051;-80
2023/11/30 07:04:19;;;;;;;22.25;10.18;;;;;;;;;;4939186;28;20073;-80
2023/11/30 07:06:45;;;;;;;10.75;6.57;;;;;;;;;;4944272;28;20020;-79
2023/11/30 07:09:13;;;;;;;15.43;7.13;;;;;;;;;;4943519;28;20023;-79
2023/11/30 07:11:40;;;;;;;20.52;9.23;;;;;;;;;;4926649;29;20035;-80
2023/11/30 07:14:06;;;;;;;12.68;6.68;;;;;;;;;;4943919;29;20023;-79
2023/11/30 07:16:32;;;;;;;13.25;6.13;;;4.70;99.90;;;;;;4943325;29;20046;-80
2023/11/30 07:18:58;;;;;;;18.48;7.53;;;;;;;;;;4943766;29;20126;-83
2023/11/30 07:21:26;;;;;;;14.73;6.53;;;;;;;;;;4942998;29;20027;-81
2023/11/30 07:23:52;;;;;;;15.25;6.50;;;;;;;;;;4943763;29;20019;-80
2023/11/30 07:26:18;;;;;;;15.90;6.95;;;;;;;;;;4944481;29;20028;-80
2023/11/30 07:28:44;;;;;;;12.45;5.90;;;5.50;99.90;;;;;;4944280;28;20054;-81
2023/11/30 07:31:18;;;;;;;13.80;6.40;;;5.70;99.90;;;;;;4926928;29;20408;-80
2023/11/30 07:33:44;;;;;;;17.42;7.57;;;;;;;;;;4944592;29;20148;-86
2023/11/30 07:36:10;;;;;;;13.80;8.55;;;5.70;99.90;;;;;;4943980;28;20133;-79
2023/11/30 07:38:36;;;;;;;20.23;9.02;;;;;;;;;;4943792;29;20020;-86
2023/11/30 07:41:03;;;;;;;81.60;21.55;;;;;;;;;;4944044;29;20031;-85
2023/11/30 07:43:31;;;;;;;43.83;13.02;;;;;;;;;;4944803;29;20031;-86
2023/11/30 07:45:57;;;;;;;31.30;11.30;;;;;;;;;;4943542;28;20035;-86
2023/11/30 07:48:23;;;;;;;25.27;8.57;;;;;;;;;;4944185;28;20492;-83
2023/11/30 07:50:51;;;;;;;14.68;7.22;;;;;;;;;;4942902;29;20027;-87
2023/11/30 07:53:17;;;;;;;18.55;9.40;;;;;;;;;;4944480;29;20106;-86
2023/11/30 07:55:44;;;;;;;19.67;9.20;;;;;;;;;;4944996;29;20035;-86
2023/11/30 07:58:10;;;;;;;11.52;7.05;;;;;;;;;;4944827;29;20600;-81
2023/11/30 08:00:36;;;;;;;11.50;5.50;;;;;;;;;;4943737;29;20023;-81
2023/11/30 08:03:03;;;;;;;20.15;9.07;;;;;;;;;;4943578;29;20058;-82
2023/11/30 08:05:29;;;;;;;10.95;6.03;;;;;;;;;;4941835;28;20046;-82
2023/11/30 08:07:55;;;;;;;17.52;6.25;;;;;;;;;;4928610;29;20043;-81
2023/11/30 08:10:21;;;;;;;14.82;6.57;;;7.80;99.90;;;;;;4944125;29;20115;-82
2023/11/30 08:12:47;;;;;;;14.63;6.95;;;7.20;99.90;;;;;;4944178;29;20046;-82
2023/11/30 08:15:13;;;;;;;14.00;5.43;;;;;;;;;;4943272;29;20024;-79
2023/11/30 08:17:39;;;;;;;7.88;4.43;;;;;;;;;;4943631;29;20020;-81
2023/11/30 08:20:09;;;;;;;6.90;4.68;;;;;;;;;;4943490;29;20037;-83
2023/11/30 08:22:36;;;;;;;9.40;4.15;;;;;;;;;;4942607;29;20031;-78
2023/11/30 08:25:03;;;;;;;9.23;3.97;;;;;;;;;;4942366;29;20504;-81
2023/11/30 08:27:29;;;;;;;5.60;3.00;;;;;;;;;;4942306;29;20274;-82
2023/11/30 08:29:55;;;;;;;7.90;3.67;;;;;;;;;;4943270;28;20042;-82
2023/11/30 08:32:21;;;;;;;5.00;3.10;;;7.80;99.90;;;;;;4943571;29;20027;-81
2023/11/30 08:34:47;;;;;;;7.30;4.20;;;;;;;;;;4942491;29;20431;-85
2023/11/30 08:37:13;;;;;;;6.20;3.13;;;;;;;;;;4942309;29;20118;-85
2023/11/30 08:39:39;;;;;;;9.02;3.67;;;8.50;99.90;;;;;;4943569;29;20444;-84
2023/11/30 08:42:04;;;;;;;7.28;3.45;;;8.40;99.90;;;;;;4943173;29;20372;-80
2023/11/30 08:44:34;;;;;;;3.78;2.15;;;;;;;;;;4942518;29;20032;-82
2023/11/30 08:47:00;;;;;;;2.95;1.73;;;;;;;;;;4943032;29;20076;-80
2023/11/30 08:49:26;;;;;;;7.45;1.98;;;;;;;;;;4943174;29;20454;-81
2023/11/30 08:51:52;;;;;;;3.33;1.80;;;;;;;;;;4941566;29;20067;-81
2023/11/30 08:54:20;;;;;;;3.85;1.73;;;9.30;99.90;;;;;;4943875;29;20050;-82
2023/11/30 08:56:46;;;;;;;1.35;1.00;;;;;;;;;;4940069;29;20035;-81
2023/11/30 08:59:12;;;;;;;0.73;0.73;;;;;;;;;;4924374;29;20114;-82
2023/11/30 09:01:38;;;;;;;1.13;0.80;;;;;;;;;;4943193;29;20034;-81
2023/11/30 09:04:05;;;;;;;0.50;0.50;;;;;;;;;;4943091;28;20031;-81
2023/11/30 09:06:33;;;;;;;2.22;0.98;;;10.20;99.90;;;;;;4941937;29;20034;-81
2023/11/30 09:09:00;;;;;;;0.65;0.55;;;;;;;;;;4943381;29;20228;-82
2023/11/30 09:11:26;;;;;;;0.77;0.75;;;10.40;99.90;;;;;;4944801;28;20072;-81
2023/11/30 09:13:52;;;;;;;1.55;1.00;;;10.50;99.90;;;;;;4946558;29;20067;-82
2023/11/30 09:16:19;;;;;;;1.95;0.90;;;10.60;99.90;;;;;;4947384;29;20041;-81
2023/11/30 09:18:45;;;;;;;2.78;0.80;;;;;;;;;;4947100;29;20050;-82
2023/11/30 09:21:11;;;;;;;0.80;0.80;;;;;;;;;;4945313;29;20137;-81
2023/11/30 09:23:36;;;;;;;3.30;1.52;;;;;;;;;;4945656;29;20396;-81
2023/11/30 09:26:06;;;;;;;1.23;1.13;;;10.80;99.90;;;;;;4946889;29;20042;-80
2023/11/30 09:28:32;;;;;;;4.75;2.15;;;;;;;;;;4944387;28;20135;-79
2023/11/30 09:31:02;;;;;;;2.70;1.25;;;10.70;99.90;;;;;;4946616;29;20033;-83
2023/11/30 09:33:29;;;;;;;1.35;1.20;;;;;;;;;;4946874;29;20150;-85
2023/11/30 09:35:55;;;;;;;0.73;0.73;;;;;;;;;;4944824;29;20023;-86
2023/11/30 09:38:21;;;;;;;1.20;0.82;;;10.90;99.90;;;;;;4945994;29;20019;-82
2023/11/30 09:40:47;;;;;;;0.90;0.80;;;;;;;;;;4945423;29;20452;-81
2023/11/30 09:43:19;;;;;;;1.10;0.50;;;10.90;99.90;;;;;;4945934;29;20023;-82
2023/11/30 09:45:49;;;;;;;1.10;0.70;;;10.90;99.90;;;;;;4946333;29;20105;-81
2023/11/30 09:48:15;;;;;;;0.68;0.68;;;;;;;;;;4946074;29;23327;-80
2023/11/30 09:50:41;;;;;;;1.70;0.93;;;;;;;;;;4945237;29;20027;-81
2023/11/30 09:53:11;;;;;;;2.03;1.23;;;;;;;;;;4945316;29;20038;-83
2023/11/30 09:55:37;;;;;;;4.95;2.25;;;;;;;;;;4927865;29;20023;-88
2023/11/30 09:58:03;;;;;;;1.17;1.00;;;;;;;;;;4945814;29;20547;-81
2023/11/30 10:00:29;;;;;;;2.03;1.08;;;;;;;;;;4945050;29;20560;-76
2023/11/30 10:02:59;;;;;;;1.38;0.90;;;;;;;;;;4946338;29;20114;-83
2023/11/30 10:05:28;;;;;;;1.25;1.00;;;;;;;;;;4945709;28;20039;-82
2023/11/30 10:07:54;;;;;;;6.50;2.75;;;;;;;;;;4945701;29;20034;-80
2023/11/30 10:10:20;;;;;;;3.45;2.05;;;;;;;;;;4946892;29;20034;-80
2023/11/30 10:12:46;;;;;;;5.15;2.08;;;;;;;;;;4945731;29;20043;-81
2023/11/30 10:15:12;;;;;;;4.28;2.83;;;;;;;;;;4944912;29;20094;-82
2023/11/30 10:17:38;;;;;;;1.10;1.00;;;;;;;;;;4945425;29;20414;-81
2023/11/30 10:20:11;;;;;;;0.95;0.85;;;11.10;99.90;;;;;;4945494;29;20023;-81
2023/11/30 10:22:39;;;;;;;1.80;1.48;;;;;;;;;;4946111;28;20477;-80
2023/11/30 10:25:06;;;;;;;;;;;11.30;99.90;;;;;;4946168;29;20026;-80
2023/11/30 10:27:33;;;;;;;3.55;1.30;;;;;;;;;;4946290;29;20383;-79
2023/11/30 10:30:10;;;;;;;1.60;1.00;;;11.40;99.90;;;;;;4944926;28;20107;-81
2023/11/30 10:32:39;;;;;;;1.20;1.10;;;11.50;99.90;;;;;;4945751;29;20040;-80
2023/11/30 10:35:06;;;;;;;1.25;0.98;;;;;;;;;;4945380;29;20027;-80
2023/11/30 10:37:43;;;;;;;2.15;1.02;;;11.50;99.90;;;;;;4945500;29;20039;-78
2023/11/30 10:40:10;;;;;;;;;;;11.60;99.90;;;;;;4945396;29;20020;-80
2023/11/30 10:42:36;;;;;;;1.63;1.25;;;;;;;;;;4944905;29;19946;-80
2023/11/30 10:45:04;;;;;;;1.23;0.87;;;11.40;99.90;;;;;;4942022;28;20039;-81
2023/11/30 10:47:30;;;;;;;1.83;0.88;;;;;;;;;;4943376;29;20027;-80
2023/11/30 10:50:01;;;;;;;4.30;1.33;;;11.20;99.90;;;;;;4944965;29;20591;-82
2023/11/30 10:52:30;;;;;;;2.90;1.05;;;;;;;;;;4945407;29;20726;-80
2023/11/30 10:55:00;;;;;;;1.80;1.02;;;11.10;99.90;;;;;;4944900;29;20073;-79
2023/11/30 10:57:26;;;;;;;1.48;0.80;;;;;;;;;;4944968;29;20039;-79
2023/11/30 11:00:02;;;;;;;2.60;1.08;;;11.20;99.90;;;;;;4928314;29;20451;-77
2023/11/30 11:02:45;;;;;;;2.08;1.38;;;11.30;99.90;;;;;;4945472;29;20567;-80
2023/11/30 11:05:15;;;;;;;1.70;1.00;;;11.30;99.90;;;;;;4944034;28;20537;-77
2023/11/30 11:07:48;;;;;;;4.07;1.23;;;11.30;99.90;;;;;;4944512;29;20019;-77
2023/11/30 11:10:31;;;;;;;1.90;1.15;;;;;;;;;;4943206;29;20019;-78
2023/11/30 11:13:00;;;;;;;3.05;1.30;;;11.30;99.90;;;;;;4945343;29;20049;-78
2023/11/30 11:15:31;;;;;;;3.42;1.48;;;11.30;99.90;;;;;;4944639;29;20082;-77
2023/11/30 11:18:00;;;;;;;0.77;0.75;;;11.30;99.90;;;;;;4944941;29;20034;-78
2023/11/30 11:20:30;;;;;;;1.00;0.80;;;11.40;99.90;;;;;;4943277;29;20456;-78
2023/11/30 11:23:08;;;;;;;1.50;0.77;;;11.50;99.90;;;;;;4944208;29;20489;-78
2023/11/30 11:25:43;;;;;;;0.80;0.80;;;11.50;99.90;;;;;;4943495;29;20516;-78
2023/11/30 11:28:09;;;;;;;0.43;0.43;;;11.70;99.90;;;;;;4943473;28;20043;-78
2023/11/30 11:30:41;;;;;;;0.65;0.40;;;11.80;99.90;;;;;;4945477;29;20042;-78
2023/11/30 11:33:07;;;;;;;0.50;0.50;;;;;;;;;;4943876;29;20178;-78
2023/11/30 11:35:33;;;;;;;0.63;0.57;;;;;;;;;;4941967;28;20452;-78
2023/11/30 11:37:59;;;;;;;0.55;0.50;;;12.20;99.90;;;;;;4943337;29;20031;-78
2023/11/30 11:40:26;;;;;;;0.45;0.45;;;;;;;;;;4943828;29;20027;-84
2023/11/30 11:42:53;;;;;;;0.32;0.32;;;12.30;99.90;;;;;;4942807;29;20062;-75
2023/11/30 11:45:21;;;;;;;;;;;;;;;;;;4946915;29;20023;-80
2023/11/30 11:47:46;;;;;;;0.40;0.40;;;12.20;99.90;;;;;;4944822;29;19960;-78
2023/11/30 11:50:12;;;;;;;2.35;1.05;;;;;;;;;;4943681;29;20728;-79
2023/11/30 11:52:38;;;;;;;3.65;1.15;;;12.20;99.90;;;;;;4942626;29;20058;-79
2023/11/30 11:55:08;;;;;;;19.65;4.55;;;12.30;99.90;;;;;;4943975;29;20027;-78
2023/11/30 11:57:38;;;;;;;29.27;6.80;;;12.40;99.90;;;;;;4942601;29;20049;-76
2023/11/30 12:00:20;;;;;;;11.90;4.75;;;12.50;99.90;;;;;;4942408;29;20086;-82
2023/11/30 12:02:47;;;;;;;15.50;4.97;;;12.40;99.90;;;;;;4944717;29;20416;-80
2023/11/30 12:05:20;;;;;;;20.20;7.27;;;12.40;99.90;;;;;;4943779;28;20024;-80
2023/11/30 12:07:59;;;;;;;7.70;2.83;;;12.40;99.90;;;;;;4943042;29;20027;-80
2023/11/30 12:10:25;;;;;;;17.42;7.45;;;;;;;;;;4944510;29;20062;-80
2023/11/30 12:12:51;;;;;;;10.93;2.75;;;;;;;;;;4944170;29;20668;-80
2023/11/30 12:15:17;;;;;;;7.57;3.85;;;;;;;;;;4943984;29;20034;-80
2023/11/30 12:17:43;;;;;;;3.13;1.30;;;;;;;;;;4943200;29;20540;-80
2023/11/30 12:20:09;;;;;;;1.83;0.85;;;12.40;99.90;;;;;;4945113;29;20028;-79
2023/11/30 12:22:35;;;;;;;1.17;0.80;;;12.30;99.90;;;;;;4944291;29;20027;-81
2023/11/30 12:25:02;;;;;;;2.33;0.90;;;;;;;;;;4944295;29;20038;-81
2023/11/30 12:27:29;;;;;;;0.98;0.88;;;;;;;;;;4943429;29;20027;-81
2023/11/30 12:29:55;;;;;;;1.58;0.85;;;;;;;;;;4944249;28;20055;-81
2023/11/30 12:32:21;;;;;;;2.65;1.08;;;;;;;;;;4923315;29;20043;-81
2023/11/30 12:34:47;;;;;;;1.48;1.00;;;;;;;;;;4943315;29;20030;-81
2023/11/30 12:37:13;;;;;;;3.45;1.45;;;;;;;;;;4943049;29;20512;-81
2023/11/30 12:39:39;;;;;;;1.35;0.80;;;;;;;;;;4943112;29;20074;-81
2023/11/30 12:42:05;;;;;;;2.40;1.33;;;;;;;;;;4942597;29;20493;-81
2023/11/30 12:44:33;;;;;;;2.80;1.52;;;;;;;;;;4942790;29;20452;-79
2023/11/30 12:46:59;;;;;;;5.45;2.28;;;;;;;;;;4943708;28;20027;-81
2023/11/30 12:49:25;;;;;;;6.03;2.70;;;12.20;99.90;;;;;;4946133;29;20443;-80
2023/11/30 12:51:50;;;;;;;3.17;2.00;;;12.60;99.90;;;;;;4944497;29;20042;-80
2023/11/30 12:54:17;;;;;;;3.50;2.05;;;;;;;;;;4946402;29;20027;-80
2023/11/30 12:56:43;;;;;;;2.30;1.30;;;;;;;;;;4945615;29;20035;-79
2023/11/30 12:59:09;;;;;;;0.50;0.50;;;;;;;;;;4945927;29;20024;-80
2023/11/30 13:01:35;;;;;;;1.00;0.90;;;;;;;;;;4945624;29;20037;-80
2023/11/30 13:04:01;;;;;;;0.50;0.50;;;;;;;;;;4946580;28;20030;-82
2023/11/30 13:06:27;;;;;;;1.13;0.57;;;;;;;;;;4946664;29;20035;-81
2023/11/30 13:08:53;;;;;;;0.30;0.30;;;;;;;;;;4946123;29;20103;-81
2023/11/30 13:11:19;;;;;;;0.40;0.40;;;;;;;;;;4946424;29;20031;-80
2023/11/30 13:13:46;;;;;;;0.30;0.30;;;12.30;99.90;;;;;;4946702;29;20028;-80
2023/11/30 13:16:12;;;;;;;0.43;0.43;;;;;;;;;;4946973;29;20030;-81
2023/11/30 13:18:38;;;;;;;4.82;2.05;;;;;;;;;;4946747;29;20377;-81
2023/11/30 13:21:05;;;;;;;14.13;4.22;;;;;;;;;;4947300;29;20023;-80
2023/11/30 13:23:30;;;;;;;18.77;4.32;;;12.60;99.90;;;;;;4946001;29;20160;-80
2023/11/30 13:25:57;;;;;;;5.78;2.38;;;;;;;;;;4945755;29;20653;-79
2023/11/30 13:28:25;;;;;;;5.27;1.67;;;12.50;99.90;;;;;;4945379;28;20133;-78
2023/11/30 13:30:51;;;;;;;1.05;0.60;;;;;;;;;;4946025;29;20024;-78
2023/11/30 13:33:17;;;;;;;2.65;0.80;;;;;;;;;;4945762;29;20035;-78
2023/11/30 13:35:44;;;;;;;3.33;0.70;;;;;;;;;;4946159;29;20031;-79
2023/11/30 13:38:10;;;;;;;1.42;0.90;;;;;;;;;;4946483;29;20121;-77
2023/11/30 13:40:36;;;;;;;3.10;1.58;;;;;;;;;;4947800;29;20043;-77
2023/11/30 13:43:03;;;;;;;8.45;4.13;;;;;;;;;;4945238;29;20556;-77
2023/11/30 13:45:29;;;;;;;5.20;2.83;;;;;;;;;;4946366;29;20027;-77
2023/11/30 13:47:55;;;;;;;5.93;3.40;;;;;;;;;;4945900;29;20027;-80
2023/11/30 13:50:23;;;;;;;7.57;2.72;;;;;;;;;;4946480;29;20097;-80
2023/11/30 13:52:49;;;;;;;2.90;2.10;;;;;;;;;;4944017;29;20043;-81
2023/11/30 13:55:15;;;;;;;1.85;1.17;;;;;;;;;;4929667;29;20086;-80
2023/11/30 13:57:41;;;;;;;4.90;1.92;;;;;;;;;;4944168;28;20031;-80